createdAt,value
2023-04-08T00:05:25.996Z,100967
2023-04-08T00:11:19.596Z,100970
2023-04-08T00:17:12.064Z,100973
2023-04-08T00:23:04.863Z,100971
2023-04-08T00:28:56.690Z,100979
2023-04-08T00:34:49.048Z,100972
2023-04-08T00:40:40.333Z,100975
2023-04-08T00:46:32.424Z,100979
2023-04-08T00:52:24.971Z,100979
2023-04-08T00:58:16.810Z,100984
2023-04-08T01:04:09.175Z,100985
2023-04-08T01:10:02.405Z,100984
2023-04-08T01:15:55.817Z,100989
2023-04-08T01:21:48.259Z,100986
2023-04-08T01:27:40.941Z,100987
2023-04-08T01:33:32.762Z,100987
2023-04-08T01:39:25.636Z,100992
2023-04-08T01:45:20.069Z,100991
2023-04-08T01:51:12.856Z,100991
2023-04-08T01:57:05.358Z,100993
2023-04-08T02:02:58.480Z,100993
2023-04-08T02:08:52.047Z,100996
2023-04-08T02:14:45.677Z,100993
2023-04-08T02:20:38.361Z,101001
2023-04-08T02:26:31.558Z,100999
2023-04-08T02:32:22.716Z,101005
2023-04-08T02:38:15.755Z,100997
2023-04-08T02:44:08.016Z,101000
2023-04-08T02:50:01.031Z,101002
2023-04-08T02:55:53.446Z,101005
2023-04-08T03:01:46.136Z,101010
2023-04-08T03:07:38.379Z,101012
2023-04-08T03:13:30.352Z,101009
2023-04-08T03:19:22.809Z,101011
2023-04-08T03:25:14.607Z,101014
2023-04-08T03:31:06.841Z,101019
2023-04-08T03:36:58.982Z,101019
2023-04-08T03:42:51.178Z,101022
2023-04-08T03:48:43.455Z,101022
2023-04-08T03:54:35.582Z,101021
2023-04-08T04:00:27.529Z,101024
2023-04-08T04:06:20.179Z,101024
2023-04-08T04:12:13.355Z,101022
2023-04-08T04:18:06.078Z,101026
2023-04-08T11:51:53.482Z,101225
2023-04-08T11:58:10.032Z,101226
2023-04-08T12:04:06.060Z,101220
2023-04-08T12:10:11.561Z,101227
2023-04-08T12:16:32.751Z,101229
2023-04-08T12:23:11.460Z,101230
2023-04-08T12:29:43.629Z,101233
2023-04-08T12:35:54.357Z,101229
2023-04-08T12:42:05.950Z,101237
2023-04-08T12:48:29.229Z,101236
2023-04-08T12:54:39.785Z,101229
2023-04-08T13:00:51.411Z,101222
2023-04-08T13:07:00.937Z,101227
2023-04-08T13:13:19.987Z,101226
2023-04-08T13:19:39.624Z,101234
2023-04-08T13:25:57.331Z,101218
2023-04-08T13:37:51.286Z,101212
2023-04-08T13:43:53.721Z,101210
2023-04-08T13:50:07.107Z,101213
2023-04-08T13:56:02.040Z,101212
2023-04-08T14:02:15.537Z,101212
2023-04-08T14:08:37.776Z,101211
2023-04-08T14:14:49.393Z,101213
2023-04-08T14:21:09.809Z,101211
2023-04-08T14:27:02.039Z,101208
2023-04-08T14:32:58.383Z,101209
2023-04-08T14:39:12.152Z,101205
2023-04-08T14:45:19.708Z,101207
2023-04-08T14:51:21.938Z,101212
2023-04-08T14:57:24.993Z,101211
2023-04-08T15:03:57.717Z,101210
2023-04-08T15:09:53.668Z,101204
2023-04-08T15:15:50.470Z,101199
2023-04-08T15:21:59.507Z,101203
2023-04-08T15:28:05.116Z,101201
2023-04-08T15:34:05.605Z,101210
2023-04-08T15:40:09.229Z,101208
2023-04-08T15:46:17.061Z,101211
2023-04-08T15:52:10.903Z,101202
2023-04-08T15:58:07.866Z,101208
2023-04-08T16:04:01.095Z,101214
2023-04-08T16:10:11.949Z,101218
2023-04-08T16:16:34.093Z,101213
2023-04-08T16:23:08.203Z,101212
2023-04-08T16:29:31.472Z,101211
2023-04-08T16:35:28.609Z,101212
2023-04-08T16:41:40.281Z,101218
2023-04-08T16:47:59.523Z,101226
2023-04-08T16:54:28.753Z,101226
2023-04-08T17:00:50.801Z,101221
2023-04-08T17:06:53.256Z,101229
2023-04-08T17:12:51.931Z,101242
2023-04-08T17:18:52.920Z,101230
2023-04-08T17:24:56.283Z,101227
2023-04-08T17:30:53.606Z,101231
2023-04-08T17:37:06.944Z,101212
2023-04-08T17:49:10.204Z,101226
2023-04-08T17:55:01.142Z,101233
2023-04-08T18:00:53.248Z,101236
2023-04-08T18:13:17.745Z,101247
2023-04-08T18:19:09.904Z,101254
2023-04-08T18:25:13.812Z,101255
2023-04-08T18:31:06.367Z,101256
2023-04-08T18:37:01.012Z,101264
2023-04-08T18:42:52.981Z,101265
2023-04-08T18:48:44.841Z,101274
2023-04-08T18:54:38.056Z,101277
2023-04-08T19:00:30.800Z,101284
2023-04-08T19:06:22.895Z,101284
2023-04-08T19:12:15.476Z,101288
2023-04-08T19:18:07.537Z,101293
2023-04-08T19:23:58.956Z,101299
2023-04-08T19:29:50.770Z,101299
2023-04-08T19:35:43.068Z,101307
2023-04-08T19:41:35.249Z,101304
2023-04-08T19:47:27.053Z,101305
2023-04-08T19:53:19.280Z,101302
2023-04-08T19:59:13.132Z,101312
2023-04-08T20:05:04.179Z,101312
2023-04-08T20:10:56.387Z,101321
2023-04-08T20:16:48.483Z,101317
2023-04-08T20:22:39.976Z,101322
2023-04-08T20:28:32.112Z,101321
2023-04-08T20:34:24.486Z,101324
2023-04-08T20:40:19.397Z,101328
2023-04-08T20:46:11.765Z,101327
2023-04-08T20:52:04.228Z,101328
2023-04-08T20:57:57.144Z,101316
2023-04-08T21:03:51.335Z,101318
2023-04-08T21:09:43.981Z,101311
2023-04-08T21:15:36.233Z,101313
2023-04-08T21:21:28.036Z,101319
2023-04-08T21:27:20.867Z,101326
2023-04-08T21:33:12.848Z,101322
2023-04-08T21:39:05.840Z,101314
2023-04-08T21:44:57.985Z,101320
2023-04-08T21:50:52.191Z,101324
2023-04-08T21:56:44.128Z,101329
2023-04-08T22:02:37.301Z,101326
2023-04-08T22:08:29.022Z,101328
2023-04-08T22:14:20.929Z,101330
2023-04-08T22:20:12.965Z,101331
2023-04-08T22:26:05.013Z,101333
2023-04-08T22:31:58.127Z,101336
2023-04-08T22:37:50.418Z,101332
2023-04-08T22:43:42.141Z,101326
2023-04-08T22:49:33.918Z,101327
2023-04-08T22:55:25.434Z,101333
2023-04-08T23:01:17.443Z,101332
2023-04-08T23:07:09.962Z,101339
2023-04-08T23:13:02.231Z,101330
2023-04-08T23:18:55.502Z,101322
2023-04-08T23:24:46.664Z,101322
2023-04-08T23:30:38.990Z,101322
2023-04-08T23:36:30.579Z,101327
2023-04-08T23:42:22.790Z,101329
2023-04-08T23:48:14.067Z,101328
2023-04-08T23:54:09.651Z,101330
